Woodburn, Mississippi
Current Conditions -  °F | °C
As of 9:53 AM on Thursday 27 Nov 2014 (Local Time) from KGLH Reporting Station
Scattered Clouds Scattered Clouds  
Wind Chill: 36°   Ceiling: Unl
Heat Index: 43°   Visibility: 10mi
Dew Point: 30°   Wind: 13mph
Humidity: 60%   Direction: 10°N
Pressure: 30.53"   Gusts: NA
Location:  33.4825°N, 90.6856°W
Report Text: KGLH 271553Z AUTO 01011KT 10SM SCT029 06/M01 A3053 RMK AO2 SLP347 T00611011
Loading
Personal Weather Stations






























Interactive Weather Map New forecast layout! Learn more

10-Day Weather Forecast

Advertisements
Track Severe Weather on mobile